sensor_id;sensor_type;location;lat;lon;timestamp;P1;durP1;ratioP1;P2;durP2;ratioP2
72586;SDS011;60621;49.576;11.024;2023-02-14T00:02:39;29.00;;;11.00;;
72586;SDS011;60621;49.576;11.024;2023-02-14T00:03:41;29.92;;;12.02;;
72586;SDS011;60621;49.576;11.024;2023-02-14T00:04:42;28.92;;;13.15;;
72586;SDS011;60621;49.576;11.024;2023-02-14T00:05:46;31.42;;;12.95;;
72586;SDS011;60621;49.576;11.024;2023-02-14T00:06:47;27.80;;;11.52;;
72586;SDS011;60621;49.576;11.024;2023-02-14T00:07:49;30.77;;;12.95;;
72586;SDS011;60621;49.576;11.024;2023-02-14T00:08:51;29.08;;;12.52;;
72586;SDS011;60621;49.576;11.024;2023-02-14T00:09:54;29.90;;;12.68;;
72586;SDS011;60621;49.576;11.024;2023-02-14T00:10:55;27.83;;;12.38;;
72586;SDS011;60621;49.576;11.024;2023-02-14T00:11:57;28.48;;;11.73;;
72586;SDS011;60621;49.576;11.024;2023-02-14T00:12:59;27.67;;;11.88;;
72586;SDS011;60621;49.576;11.024;2023-02-14T00:14:00;29.38;;;12.57;;
72586;SDS011;60621;49.576;11.024;2023-02-14T00:15:20;27.50;;;12.48;;
72586;SDS011;60621;49.576;11.024;2023-02-14T00:16:25;30.02;;;12.98;;
72586;SDS011;60621;49.576;11.024;2023-02-14T00:17:27;23.88;;;10.85;;
72586;SDS011;60621;49.576;11.024;2023-02-14T00:18:28;28.05;;;12.10;;
72586;SDS011;60621;49.576;11.024;2023-02-14T00:19:48;29.13;;;12.18;;
72586;SDS011;60621;49.576;11.024;2023-02-14T00:20:50;31.80;;;12.65;;
72586;SDS011;60621;49.576;11.024;2023-02-14T00:21:52;31.85;;;12.38;;
72586;SDS011;60621;49.576;11.024;2023-02-14T00:22:53;27.73;;;12.55;;
72586;SDS011;60621;49.576;11.024;2023-02-14T00:23:55;28.17;;;12.32;;
72586;SDS011;60621;49.576;11.024;2023-02-14T00:24:56;25.80;;;12.45;;
72586;SDS011;60621;49.576;11.024;2023-02-14T00:25:58;28.95;;;12.80;;
72586;SDS011;60621;49.576;11.024;2023-02-14T00:26:59;29.88;;;12.80;;
72586;SDS011;60621;49.576;11.024;2023-02-14T00:28:01;29.20;;;12.85;;
72586;SDS011;60621;49.576;11.024;2023-02-14T00:29:06;28.17;;;12.35;;
72586;SDS011;60621;49.576;11.024;2023-02-14T00:30:11;27.58;;;11.70;;
72586;SDS011;60621;49.576;11.024;2023-02-14T00:31:13;28.75;;;13.15;;
72586;SDS011;60621;49.576;11.024;2023-02-14T00:32:15;32.05;;;12.68;;
72586;SDS011;60621;49.576;11.024;2023-02-14T00:33:16;29.17;;;12.48;;
72586;SDS011;60621;49.576;11.024;2023-02-14T00:34:18;30.88;;;13.30;;
72586;SDS011;60621;49.576;11.024;2023-02-14T00:35:20;27.15;;;12.02;;
72586;SDS011;60621;49.576;11.024;2023-02-14T00:36:21;29.17;;;13.02;;
72586;SDS011;60621;49.576;11.024;2023-02-14T00:37:23;28.85;;;12.40;;
72586;SDS011;60621;49.576;11.024;2023-02-14T00:38:25;28.58;;;11.65;;
72586;SDS011;60621;49.576;11.024;2023-02-14T00:39:26;30.83;;;12.77;;
72586;SDS011;60621;49.576;11.024;2023-02-14T00:40:28;31.45;;;12.90;;
72586;SDS011;60621;49.576;11.024;2023-02-14T00:41:29;28.90;;;12.23;;
72586;SDS011;60621;49.576;11.024;2023-02-14T00:42:31;29.92;;;12.70;;
72586;SDS011;60621;49.576;11.024;2023-02-14T00:43:32;29.38;;;13.02;;
72586;SDS011;60621;49.576;11.024;2023-02-14T00:44:34;28.75;;;12.52;;
72586;SDS011;60621;49.576;11.024;2023-02-14T00:45:35;28.33;;;12.25;;
72586;SDS011;60621;49.576;11.024;2023-02-14T00:46:37;29.48;;;12.70;;
72586;SDS011;60621;49.576;11.024;2023-02-14T00:47:38;29.88;;;12.55;;
72586;SDS011;60621;49.576;11.024;2023-02-14T00:48:40;26.80;;;11.98;;
72586;SDS011;60621;49.576;11.024;2023-02-14T00:49:42;30.23;;;13.02;;
72586;SDS011;60621;49.576;11.024;2023-02-14T00:50:43;29.92;;;12.63;;
72586;SDS011;60621;49.576;11.024;2023-02-14T00:51:46;26.25;;;12.00;;
72586;SDS011;60621;49.576;11.024;2023-02-14T00:52:47;28.55;;;12.70;;
72586;SDS011;60621;49.576;11.024;2023-02-14T00:53:49;30.40;;;12.07;;
72586;SDS011;60621;49.576;11.024;2023-02-14T00:54:51;28.52;;;12.27;;
72586;SDS011;60621;49.576;11.024;2023-02-14T00:55:52;27.45;;;13.02;;
72586;SDS011;60621;49.576;11.024;2023-02-14T00:56:54;28.25;;;12.35;;
72586;SDS011;60621;49.576;11.024;2023-02-14T00:57:55;28.60;;;12.40;;
72586;SDS011;60621;49.576;11.024;2023-02-14T00:58:57;29.13;;;12.52;;
72586;SDS011;60621;49.576;11.024;2023-02-14T00:59:59;29.40;;;11.88;;
72586;SDS011;60621;49.576;11.024;2023-02-14T01:01:00;29.70;;;12.23;;
72586;SDS011;60621;49.576;11.024;2023-02-14T01:02:02;27.45;;;12.07;;
72586;SDS011;60621;49.576;11.024;2023-02-14T01:03:04;29.42;;;12.90;;
72586;SDS011;60621;49.576;11.024;2023-02-14T01:04:06;29.23;;;12.77;;
72586;SDS011;60621;49.576;11.024;2023-02-14T01:05:08;30.42;;;12.43;;
72586;SDS011;60621;49.576;11.024;2023-02-14T01:06:09;26.55;;;11.57;;
72586;SDS011;60621;49.576;11.024;2023-02-14T01:07:11;27.45;;;12.20;;
72586;SDS011;60621;49.576;11.024;2023-02-14T01:08:12;31.08;;;12.32;;
72586;SDS011;60621;49.576;11.024;2023-02-14T01:09:14;28.92;;;12.23;;
72586;SDS011;60621;49.576;11.024;2023-02-14T01:10:16;31.77;;;12.38;;
72586;SDS011;60621;49.576;11.024;2023-02-14T01:11:18;28.40;;;12.23;;
72586;SDS011;60621;49.576;11.024;2023-02-14T01:12:22;30.17;;;12.40;;
72586;SDS011;60621;49.576;11.024;2023-02-14T01:13:23;28.88;;;13.07;;
72586;SDS011;60621;49.576;11.024;2023-02-14T01:14:25;26.83;;;11.18;;
72586;SDS011;60621;49.576;11.024;2023-02-14T01:15:27;29.98;;;12.43;;
72586;SDS011;60621;49.576;11.024;2023-02-14T01:16:29;29.35;;;12.80;;
72586;SDS011;60621;49.576;11.024;2023-02-14T01:17:31;30.15;;;11.90;;
72586;SDS011;60621;49.576;11.024;2023-02-14T01:18:32;27.67;;;12.52;;
72586;SDS011;60621;49.576;11.024;2023-02-14T01:19:34;28.13;;;11.95;;
72586;SDS011;60621;49.576;11.024;2023-02-14T01:20:36;28.60;;;12.88;;
72586;SDS011;60621;49.576;11.024;2023-02-14T01:21:38;29.77;;;12.98;;
72586;SDS011;60621;49.576;11.024;2023-02-14T01:22:41;31.40;;;13.10;;
72586;SDS011;60621;49.576;11.024;2023-02-14T01:23:43;30.48;;;12.82;;
72586;SDS011;60621;49.576;11.024;2023-02-14T01:24:45;30.60;;;12.98;;
72586;SDS011;60621;49.576;11.024;2023-02-14T01:25:46;29.45;;;12.23;;
72586;SDS011;60621;49.576;11.024;2023-02-14T01:26:48;31.85;;;13.25;;
72586;SDS011;60621;49.576;11.024;2023-02-14T01:27:49;29.83;;;12.52;;
72586;SDS011;60621;49.576;11.024;2023-02-14T01:28:51;26.88;;;12.10;;
72586;SDS011;60621;49.576;11.024;2023-02-14T01:29:53;33.13;;;13.02;;
72586;SDS011;60621;49.576;11.024;2023-02-14T01:30:54;29.45;;;12.10;;
72586;SDS011;60621;49.576;11.024;2023-02-14T01:31:56;29.65;;;12.98;;
72586;SDS011;60621;49.576;11.024;2023-02-14T01:32:57;29.13;;;12.73;;
72586;SDS011;60621;49.576;11.024;2023-02-14T01:33:59;30.60;;;12.85;;
72586;SDS011;60621;49.576;11.024;2023-02-14T01:35:01;31.40;;;12.98;;
72586;SDS011;60621;49.576;11.024;2023-02-14T01:36:03;29.58;;;12.25;;
72586;SDS011;60621;49.576;11.024;2023-02-14T01:37:05;28.08;;;11.93;;
72586;SDS011;60621;49.576;11.024;2023-02-14T01:38:06;30.67;;;12.65;;
72586;SDS011;60621;49.576;11.024;2023-02-14T01:39:11;28.73;;;12.63;;
72586;SDS011;60621;49.576;11.024;2023-02-14T01:40:14;27.98;;;12.02;;
72586;SDS011;60621;49.576;11.024;2023-02-14T01:41:16;28.45;;;12.05;;
72586;SDS011;60621;49.576;11.024;2023-02-14T01:42:18;32.38;;;13.63;;
72586;SDS011;60621;49.576;11.024;2023-02-14T01:43:20;29.40;;;12.73;;
72586;SDS011;60621;49.576;11.024;2023-02-14T01:45:25;32.42;;;12.40;;
72586;SDS011;60621;49.576;11.024;2023-02-14T01:46:29;30.48;;;12.95;;
72586;SDS011;60621;49.576;11.024;2023-02-14T01:47:33;32.42;;;11.98;;
72586;SDS011;60621;49.576;11.024;2023-02-14T01:48:40;28.98;;;12.43;;
72586;SDS011;60621;49.576;11.024;2023-02-14T01:49:46;29.27;;;12.73;;
72586;SDS011;60621;49.576;11.024;2023-02-14T01:50:52;32.17;;;13.02;;
72586;SDS011;60621;49.576;11.024;2023-02-14T01:51:55;29.70;;;12.20;;
72586;SDS011;60621;49.576;11.024;2023-02-14T01:53:05;28.88;;;12.52;;
72586;SDS011;60621;49.576;11.024;2023-02-14T01:54:16;30.80;;;12.90;;
72586;SDS011;60621;49.576;11.024;2023-02-14T01:55:21;30.88;;;12.95;;
72586;SDS011;60621;49.576;11.024;2023-02-14T01:56:35;30.95;;;13.10;;
72586;SDS011;60621;49.576;11.024;2023-02-14T01:59:04;30.05;;;12.18;;
72586;SDS011;60621;49.576;11.024;2023-02-14T02:00:11;30.80;;;12.95;;
72586;SDS011;60621;49.576;11.024;2023-02-14T02:01:32;33.83;;;12.75;;
72586;SDS011;60621;49.576;11.024;2023-02-14T02:02:34;29.25;;;12.48;;
72586;SDS011;60621;49.576;11.024;2023-02-14T02:03:36;30.63;;;12.38;;
72586;SDS011;60621;49.576;11.024;2023-02-14T02:04:43;29.45;;;12.20;;
72586;SDS011;60621;49.576;11.024;2023-02-14T02:05:47;31.30;;;13.23;;
72586;SDS011;60621;49.576;11.024;2023-02-14T02:06:56;32.25;;;12.85;;
72586;SDS011;60621;49.576;11.024;2023-02-14T02:08:00;29.00;;;12.68;;
72586;SDS011;60621;49.576;11.024;2023-02-14T02:10:20;28.77;;;12.00;;
72586;SDS011;60621;49.576;11.024;2023-02-14T02:11:22;29.00;;;12.80;;
72586;SDS011;60621;49.576;11.024;2023-02-14T02:12:23;28.33;;;12.07;;
72586;SDS011;60621;49.576;11.024;2023-02-14T02:13:25;29.45;;;12.77;;
72586;SDS011;60621;49.576;11.024;2023-02-14T02:14:26;28.40;;;11.55;;
72586;SDS011;60621;49.576;11.024;2023-02-14T02:15:28;30.80;;;12.43;;
72586;SDS011;60621;49.576;11.024;2023-02-14T02:18:14;31.23;;;12.48;;
72586;SDS011;60621;49.576;11.024;2023-02-14T02:34:04;32.05;;;12.98;;
72586;SDS011;60621;49.576;11.024;2023-02-14T02:35:30;32.83;;;13.05;;
72586;SDS011;60621;49.576;11.024;2023-02-14T02:36:50;30.60;;;11.93;;
72586;SDS011;60621;49.576;11.024;2023-02-14T02:39:56;30.70;;;12.15;;
72586;SDS011;60621;49.576;11.024;2023-02-14T02:41:11;34.33;;;13.65;;
72586;SDS011;60621;49.576;11.024;2023-02-14T02:42:23;30.83;;;12.82;;
72586;SDS011;60621;49.576;11.024;2023-02-14T02:45:12;29.50;;;12.02;;
72586;SDS011;60621;49.576;11.024;2023-02-14T02:46:39;29.20;;;11.82;;
72586;SDS011;60621;49.576;11.024;2023-02-14T02:48:55;30.10;;;12.98;;
72586;SDS011;60621;49.576;11.024;2023-02-14T02:51:47;34.08;;;13.63;;
72586;SDS011;60621;49.576;11.024;2023-02-14T02:54:15;29.60;;;12.02;;
72586;SDS011;60621;49.576;11.024;2023-02-14T02:55:03;30.65;;;11.90;;
72586;SDS011;60621;49.576;11.024;2023-02-14T02:56:18;32.45;;;12.85;;
72586;SDS011;60621;49.576;11.024;2023-02-14T02:57:43;29.95;;;11.63;;
72586;SDS011;60621;49.576;11.024;2023-02-14T02:58:51;30.83;;;11.85;;
72586;SDS011;60621;49.576;11.024;2023-02-14T02:59:57;30.27;;;12.45;;
72586;SDS011;60621;49.576;11.024;2023-02-14T03:01:00;30.95;;;12.60;;
72586;SDS011;60621;49.576;11.024;2023-02-14T03:02:13;27.60;;;11.48;;
72586;SDS011;60621;49.576;11.024;2023-02-14T03:03:19;31.30;;;12.43;;
72586;SDS011;60621;49.576;11.024;2023-02-14T03:04:53;32.25;;;12.35;;
72586;SDS011;60621;49.576;11.024;2023-02-14T03:05:57;29.27;;;12.15;;
72586;SDS011;60621;49.576;11.024;2023-02-14T03:06:58;30.38;;;12.30;;
72586;SDS011;60621;49.576;11.024;2023-02-14T03:08:01;30.52;;;12.43;;
72586;SDS011;60621;49.576;11.024;2023-02-14T03:09:08;29.65;;;12.23;;
72586;SDS011;60621;49.576;11.024;2023-02-14T03:10:34;30.92;;;12.32;;
72586;SDS011;60621;49.576;11.024;2023-02-14T03:11:39;30.10;;;12.65;;
72586;SDS011;60621;49.576;11.024;2023-02-14T03:14:29;31.73;;;12.65;;
72586;SDS011;60621;49.576;11.024;2023-02-14T03:15:43;30.92;;;11.95;;
72586;SDS011;60621;49.576;11.024;2023-02-14T03:16:58;32.88;;;13.80;;
72586;SDS011;60621;49.576;11.024;2023-02-14T03:20:06;31.25;;;12.65;;
72586;SDS011;60621;49.576;11.024;2023-02-14T03:25:41;33.53;;;12.95;;
72586;SDS011;60621;49.576;11.024;2023-02-14T03:27:01;32.70;;;12.68;;
72586;SDS011;60621;49.576;11.024;2023-02-14T03:28:17;31.60;;;12.38;;
72586;SDS011;60621;49.576;11.024;2023-02-14T03:29:25;30.70;;;12.77;;
72586;SDS011;60621;49.576;11.024;2023-02-14T03:30:41;31.67;;;12.63;;
72586;SDS011;60621;49.576;11.024;2023-02-14T03:34:59;29.60;;;12.77;;
72586;SDS011;60621;49.576;11.024;2023-02-14T03:36:48;30.98;;;12.60;;
72586;SDS011;60621;49.576;11.024;2023-02-14T03:37:56;32.45;;;12.70;;
72586;SDS011;60621;49.576;11.024;2023-02-14T03:39:02;32.53;;;12.88;;
72586;SDS011;60621;49.576;11.024;2023-02-14T03:40:09;32.67;;;13.07;;
72586;SDS011;60621;49.576;11.024;2023-02-14T03:41:27;31.02;;;12.68;;
72586;SDS011;60621;49.576;11.024;2023-02-14T03:42:53;32.92;;;13.15;;
72586;SDS011;60621;49.576;11.024;2023-02-14T03:43:57;32.40;;;13.23;;
72586;SDS011;60621;49.576;11.024;2023-02-14T03:45:01;33.72;;;12.93;;
72586;SDS011;60621;49.576;11.024;2023-02-14T03:46:13;32.08;;;12.98;;
72586;SDS011;60621;49.576;11.024;2023-02-14T03:47:16;33.40;;;13.50;;
72586;SDS011;60621;49.576;11.024;2023-02-14T03:48:22;34.22;;;12.65;;
72586;SDS011;60621;49.576;11.024;2023-02-14T03:49:28;35.03;;;13.80;;
72586;SDS011;60621;49.576;11.024;2023-02-14T03:50:34;35.25;;;13.13;;
72586;SDS011;60621;49.576;11.024;2023-02-14T03:51:38;34.13;;;13.43;;
72586;SDS011;60621;49.576;11.024;2023-02-14T03:52:42;32.03;;;13.43;;
72586;SDS011;60621;49.576;11.024;2023-02-14T03:53:46;31.55;;;12.85;;
72586;SDS011;60621;49.576;11.024;2023-02-14T03:54:52;31.42;;;12.55;;
72586;SDS011;60621;49.576;11.024;2023-02-14T03:56:14;32.45;;;13.35;;
72586;SDS011;60621;49.576;11.024;2023-02-14T03:57:31;32.85;;;13.38;;
72586;SDS011;60621;49.576;11.024;2023-02-14T03:58:42;33.85;;;13.70;;
72586;SDS011;60621;49.576;11.024;2023-02-14T03:59:47;33.10;;;12.95;;
72586;SDS011;60621;49.576;11.024;2023-02-14T04:00:49;32.13;;;12.82;;
72586;SDS011;60621;49.576;11.024;2023-02-14T04:03:15;43.30;;;17.33;;
72586;SDS011;60621;49.576;11.024;2023-02-14T04:04:19;35.55;;;15.18;;
72586;SDS011;60621;49.576;11.024;2023-02-14T04:05:25;46.00;;;17.00;;
72586;SDS011;60621;49.576;11.024;2023-02-14T04:06:28;49.55;;;19.08;;
72586;SDS011;60621;49.576;11.024;2023-02-14T04:07:29;43.83;;;16.80;;
72586;SDS011;60621;49.576;11.024;2023-02-14T04:08:31;38.90;;;15.02;;
72586;SDS011;60621;49.576;11.024;2023-02-14T04:09:32;36.95;;;14.88;;
72586;SDS011;60621;49.576;11.024;2023-02-14T04:10:33;40.22;;;14.68;;
72586;SDS011;60621;49.576;11.024;2023-02-14T04:11:35;41.40;;;15.70;;
72586;SDS011;60621;49.576;11.024;2023-02-14T04:12:39;39.13;;;14.48;;
72586;SDS011;60621;49.576;11.024;2023-02-14T04:13:40;42.75;;;16.13;;
72586;SDS011;60621;49.576;11.024;2023-02-14T04:14:42;42.03;;;16.35;;
72586;SDS011;60621;49.576;11.024;2023-02-14T04:15:43;44.50;;;16.00;;
72586;SDS011;60621;49.576;11.024;2023-02-14T04:16:45;40.35;;;15.20;;
72586;SDS011;60621;49.576;11.024;2023-02-14T04:18:05;38.60;;;14.15;;
72586;SDS011;60621;49.576;11.024;2023-02-14T04:19:25;39.08;;;14.35;;
72586;SDS011;60621;49.576;11.024;2023-02-14T04:20:27;38.80;;;14.73;;
72586;SDS011;60621;49.576;11.024;2023-02-14T04:21:29;40.45;;;15.65;;
72586;SDS011;60621;49.576;11.024;2023-02-14T04:22:30;39.13;;;14.25;;
72586;SDS011;60621;49.576;11.024;2023-02-14T04:23:31;44.65;;;15.27;;
72586;SDS011;60621;49.576;11.024;2023-02-14T04:24:33;40.75;;;15.77;;
72586;SDS011;60621;49.576;11.024;2023-02-14T04:25:34;39.45;;;15.80;;
72586;SDS011;60621;49.576;11.024;2023-02-14T04:26:36;40.40;;;15.23;;
72586;SDS011;60621;49.576;11.024;2023-02-14T04:27:37;41.72;;;15.38;;
72586;SDS011;60621;49.576;11.024;2023-02-14T04:28:39;40.30;;;16.05;;
72586;SDS011;60621;49.576;11.024;2023-02-14T04:29:44;39.03;;;14.85;;
72586;SDS011;60621;49.576;11.024;2023-02-14T04:30:50;39.38;;;14.93;;
72586;SDS011;60621;49.576;11.024;2023-02-14T04:31:51;40.35;;;15.75;;
72586;SDS011;60621;49.576;11.024;2023-02-14T04:32:53;40.95;;;14.82;;
72586;SDS011;60621;49.576;11.024;2023-02-14T04:33:54;40.45;;;15.57;;
72586;SDS011;60621;49.576;11.024;2023-02-14T04:34:56;39.80;;;15.05;;
72586;SDS011;60621;49.576;11.024;2023-02-14T04:35:58;36.90;;;14.25;;
72586;SDS011;60621;49.576;11.024;2023-02-14T04:37:00;36.58;;;14.35;;
72586;SDS011;60621;49.576;11.024;2023-02-14T04:38:02;38.15;;;14.98;;
72586;SDS011;60621;49.576;11.024;2023-02-14T04:39:04;40.30;;;14.73;;
72586;SDS011;60621;49.576;11.024;2023-02-14T04:40:05;39.00;;;14.90;;
72586;SDS011;60621;49.576;11.024;2023-02-14T04:41:07;35.78;;;13.98;;
72586;SDS011;60621;49.576;11.024;2023-02-14T04:42:09;39.63;;;14.57;;
72586;SDS011;60621;49.576;11.024;2023-02-14T04:43:11;35.97;;;15.00;;
72586;SDS011;60621;49.576;11.024;2023-02-14T04:44:12;38.05;;;13.57;;
72586;SDS011;60621;49.576;11.024;2023-02-14T04:45:14;38.55;;;14.45;;
72586;SDS011;60621;49.576;11.024;2023-02-14T04:46:15;38.60;;;14.45;;
72586;SDS011;60621;49.576;11.024;2023-02-14T04:47:17;38.60;;;14.68;;
72586;SDS011;60621;49.576;11.024;2023-02-14T04:48:18;39.65;;;14.13;;
72586;SDS011;60621;49.576;11.024;2023-02-14T04:49:20;41.08;;;15.38;;
72586;SDS011;60621;49.576;11.024;2023-02-14T04:50:22;39.05;;;14.95;;
72586;SDS011;60621;49.576;11.024;2023-02-14T04:51:23;37.58;;;14.20;;
72586;SDS011;60621;49.576;11.024;2023-02-14T04:52:27;42.95;;;15.40;;
72586;SDS011;60621;49.576;11.024;2023-02-14T04:53:29;36.50;;;14.38;;
72586;SDS011;60621;49.576;11.024;2023-02-14T04:54:30;41.20;;;15.75;;
72586;SDS011;60621;49.576;11.024;2023-02-14T04:55:33;41.05;;;15.25;;
72586;SDS011;60621;49.576;11.024;2023-02-14T04:56:34;40.30;;;14.75;;
72586;SDS011;60621;49.576;11.024;2023-02-14T04:57:36;39.60;;;15.23;;
72586;SDS011;60621;49.576;11.024;2023-02-14T04:58:37;40.55;;;15.55;;
72586;SDS011;60621;49.576;11.024;2023-02-14T04:59:39;39.50;;;14.55;;
72586;SDS011;60621;49.576;11.024;2023-02-14T05:00:40;41.88;;;15.73;;
72586;SDS011;60621;49.576;11.024;2023-02-14T05:01:42;38.90;;;16.13;;
72586;SDS011;60621;49.576;11.024;2023-02-14T05:02:43;37.40;;;13.65;;
72586;SDS011;60621;49.576;11.024;2023-02-14T05:03:45;39.75;;;15.40;;
72586;SDS011;60621;49.576;11.024;2023-02-14T05:04:46;39.85;;;15.45;;
72586;SDS011;60621;49.576;11.024;2023-02-14T05:05:50;41.60;;;15.85;;
72586;SDS011;60621;49.576;11.024;2023-02-14T05:06:51;39.63;;;14.55;;
72586;SDS011;60621;49.576;11.024;2023-02-14T05:07:53;40.05;;;15.63;;
72586;SDS011;60621;49.576;11.024;2023-02-14T05:08:54;42.53;;;15.30;;
72586;SDS011;60621;49.576;11.024;2023-02-14T05:09:56;40.17;;;15.13;;
72586;SDS011;60621;49.576;11.024;2023-02-14T05:10:58;37.13;;;14.00;;
72586;SDS011;60621;49.576;11.024;2023-02-14T05:12:00;41.20;;;15.65;;
72586;SDS011;60621;49.576;11.024;2023-02-14T05:13:01;42.50;;;15.40;;
72586;SDS011;60621;49.576;11.024;2023-02-14T05:14:03;41.40;;;15.23;;
72586;SDS011;60621;49.576;11.024;2023-02-14T05:15:05;40.08;;;14.90;;
72586;SDS011;60621;49.576;11.024;2023-02-14T05:16:06;38.22;;;14.90;;
72586;SDS011;60621;49.576;11.024;2023-02-14T05:17:08;38.78;;;14.77;;
72586;SDS011;60621;49.576;11.024;2023-02-14T05:18:09;38.55;;;13.98;;
72586;SDS011;60621;49.576;11.024;2023-02-14T05:19:11;36.40;;;14.45;;
72586;SDS011;60621;49.576;11.024;2023-02-14T05:20:13;39.08;;;14.13;;
72586;SDS011;60621;49.576;11.024;2023-02-14T05:21:15;37.22;;;13.93;;
72586;SDS011;60621;49.576;11.024;2023-02-14T05:22:16;39.67;;;14.30;;
72586;SDS011;60621;49.576;11.024;2023-02-14T05:23:19;38.33;;;13.43;;
72586;SDS011;60621;49.576;11.024;2023-02-14T05:24:21;35.67;;;14.13;;
72586;SDS011;60621;49.576;11.024;2023-02-14T05:25:22;36.30;;;13.18;;
72586;SDS011;60621;49.576;11.024;2023-02-14T05:26:24;38.53;;;14.25;;
72586;SDS011;60621;49.576;11.024;2023-02-14T05:27:25;36.53;;;14.05;;
72586;SDS011;60621;49.576;11.024;2023-02-14T05:28:27;37.72;;;13.77;;
72586;SDS011;60621;49.576;11.024;2023-02-14T05:29:29;39.25;;;13.82;;
72586;SDS011;60621;49.576;11.024;2023-02-14T05:30:30;40.38;;;15.07;;
72586;SDS011;60621;49.576;11.024;2023-02-14T05:31:32;35.97;;;13.13;;
72586;SDS011;60621;49.576;11.024;2023-02-14T05:32:34;41.25;;;14.15;;
72586;SDS011;60621;49.576;11.024;2023-02-14T05:33:35;40.40;;;14.43;;
72586;SDS011;60621;49.576;11.024;2023-02-14T05:34:37;39.53;;;14.35;;
72586;SDS011;60621;49.576;11.024;2023-02-14T05:35:38;42.30;;;14.38;;
72586;SDS011;60621;49.576;11.024;2023-02-14T05:36:39;40.35;;;14.90;;
72586;SDS011;60621;49.576;11.024;2023-02-14T05:37:41;40.22;;;14.45;;
72586;SDS011;60621;49.576;11.024;2023-02-14T05:38:42;38.55;;;14.40;;
72586;SDS011;60621;49.576;11.024;2023-02-14T05:39:44;39.65;;;13.77;;
72586;SDS011;60621;49.576;11.024;2023-02-14T05:40:46;42.42;;;14.73;;
72586;SDS011;60621;49.576;11.024;2023-02-14T05:41:47;39.45;;;14.35;;
72586;SDS011;60621;49.576;11.024;2023-02-14T05:42:50;41.88;;;14.80;;
72586;SDS011;60621;49.576;11.024;2023-02-14T05:43:52;39.92;;;14.50;;
72586;SDS011;60621;49.576;11.024;2023-02-14T05:44:53;41.63;;;14.18;;
72586;SDS011;60621;49.576;11.024;2023-02-14T05:45:55;42.42;;;15.75;;
72586;SDS011;60621;49.576;11.024;2023-02-14T05:46:58;42.83;;;14.40;;
72586;SDS011;60621;49.576;11.024;2023-02-14T05:47:59;38.40;;;14.38;;
72586;SDS011;60621;49.576;11.024;2023-02-14T05:49:01;40.97;;;15.68;;
72586;SDS011;60621;49.576;11.024;2023-02-14T05:50:04;42.25;;;14.77;;
72586;SDS011;60621;49.576;11.024;2023-02-14T05:51:08;42.15;;;14.65;;
72586;SDS011;60621;49.576;11.024;2023-02-14T05:52:10;39.20;;;14.10;;
72586;SDS011;60621;49.576;11.024;2023-02-14T05:53:12;39.88;;;14.23;;
72586;SDS011;60621;49.576;11.024;2023-02-14T05:54:14;36.05;;;13.77;;
72586;SDS011;60621;49.576;11.024;2023-02-14T05:55:15;38.13;;;13.52;;
72586;SDS011;60621;49.576;11.024;2023-02-14T05:56:17;41.97;;;14.73;;
72586;SDS011;60621;49.576;11.024;2023-02-14T05:57:18;37.67;;;14.25;;
72586;SDS011;60621;49.576;11.024;2023-02-14T05:58:20;38.58;;;13.85;;
72586;SDS011;60621;49.576;11.024;2023-02-14T05:59:21;42.55;;;15.25;;
72586;SDS011;60621;49.576;11.024;2023-02-14T06:00:23;37.65;;;13.38;;
72586;SDS011;60621;49.576;11.024;2023-02-14T06:01:25;38.22;;;13.10;;
72586;SDS011;60621;49.576;11.024;2023-02-14T06:02:26;39.25;;;14.07;;
72586;SDS011;60621;49.576;11.024;2023-02-14T06:03:28;38.53;;;13.85;;
72586;SDS011;60621;49.576;11.024;2023-02-14T06:04:29;38.67;;;14.13;;
72586;SDS011;60621;49.576;11.024;2023-02-14T06:05:30;38.33;;;14.18;;
72586;SDS011;60621;49.576;11.024;2023-02-14T06:06:32;37.47;;;13.38;;
72586;SDS011;60621;49.576;11.024;2023-02-14T06:07:36;38.20;;;14.10;;
72586;SDS011;60621;49.576;11.024;2023-02-14T06:08:38;35.03;;;13.43;;
72586;SDS011;60621;49.576;11.024;2023-02-14T06:09:39;38.13;;;14.07;;
72586;SDS011;60621;49.576;11.024;2023-02-14T06:10:41;36.47;;;12.55;;
72586;SDS011;60621;49.576;11.024;2023-02-14T06:11:42;35.42;;;13.25;;
72586;SDS011;60621;49.576;11.024;2023-02-14T06:12:45;35.83;;;13.27;;
72586;SDS011;60621;49.576;11.024;2023-02-14T06:13:48;37.10;;;12.93;;
72586;SDS011;60621;49.576;11.024;2023-02-14T06:14:49;37.10;;;13.10;;
72586;SDS011;60621;49.576;11.024;2023-02-14T06:15:51;38.47;;;14.10;;
72586;SDS011;60621;49.576;11.024;2023-02-14T06:16:52;39.88;;;14.35;;
72586;SDS011;60621;49.576;11.024;2023-02-14T06:17:54;37.65;;;14.30;;
72586;SDS011;60621;49.576;11.024;2023-02-14T06:18:57;36.60;;;12.75;;
72586;SDS011;60621;49.576;11.024;2023-02-14T06:19:58;38.25;;;13.65;;
72586;SDS011;60621;49.576;11.024;2023-02-14T06:21:00;37.90;;;14.25;;
72586;SDS011;60621;49.576;11.024;2023-02-14T06:22:02;35.13;;;13.88;;
72586;SDS011;60621;49.576;11.024;2023-02-14T06:23:04;38.33;;;13.75;;
72586;SDS011;60621;49.576;11.024;2023-02-14T06:24:05;36.72;;;13.13;;
72586;SDS011;60621;49.576;11.024;2023-02-14T06:25:07;40.38;;;14.02;;
72586;SDS011;60621;49.576;11.024;2023-02-14T06:26:08;36.38;;;12.95;;
72586;SDS011;60621;49.576;11.024;2023-02-14T06:27:10;37.30;;;13.32;;
72586;SDS011;60621;49.576;11.024;2023-02-14T06:28:11;34.88;;;13.30;;
72586;SDS011;60621;49.576;11.024;2023-02-14T06:29:14;37.58;;;14.00;;
72586;SDS011;60621;49.576;11.024;2023-02-14T06:30:17;37.47;;;13.73;;
72586;SDS011;60621;49.576;11.024;2023-02-14T06:31:19;36.97;;;13.90;;
72586;SDS011;60621;49.576;11.024;2023-02-14T06:32:21;40.47;;;13.90;;
72586;SDS011;60621;49.576;11.024;2023-02-14T06:33:23;35.17;;;12.85;;
72586;SDS011;60621;49.576;11.024;2023-02-14T06:34:24;37.00;;;13.13;;
72586;SDS011;60621;49.576;11.024;2023-02-14T06:35:26;37.33;;;13.60;;
72586;SDS011;60621;49.576;11.024;2023-02-14T06:36:27;39.55;;;13.93;;
72586;SDS011;60621;49.576;11.024;2023-02-14T06:37:32;34.40;;;12.63;;
72586;SDS011;60621;49.576;11.024;2023-02-14T06:38:33;40.88;;;14.93;;
72586;SDS011;60621;49.576;11.024;2023-02-14T06:39:35;39.03;;;13.45;;
72586;SDS011;60621;49.576;11.024;2023-02-14T06:40:36;40.28;;;14.25;;
72586;SDS011;60621;49.576;11.024;2023-02-14T06:41:38;35.42;;;13.55;;
72586;SDS011;60621;49.576;11.024;2023-02-14T06:42:39;42.05;;;13.75;;
72586;SDS011;60621;49.576;11.024;2023-02-14T06:43:41;37.85;;;13.18;;
72586;SDS011;60621;49.576;11.024;2023-02-14T06:44:43;40.53;;;14.02;;
72586;SDS011;60621;49.576;11.024;2023-02-14T06:45:45;33.90;;;13.00;;
72586;SDS011;60621;49.576;11.024;2023-02-14T06:46:47;38.63;;;13.07;;
72586;SDS011;60621;49.576;11.024;2023-02-14T06:47:48;36.97;;;12.45;;
72586;SDS011;60621;49.576;11.024;2023-02-14T06:48:49;37.75;;;14.07;;
72586;SDS011;60621;49.576;11.024;2023-02-14T06:49:51;38.05;;;13.75;;
72586;SDS011;60621;49.576;11.024;2023-02-14T06:50:52;36.38;;;13.90;;